createdAt,value
2023-12-08T00:00:56.723Z,18.87
2023-12-08T00:03:26.622Z,18.07
2023-12-08T00:05:57.006Z,18.52
2023-12-08T00:08:26.610Z,18.82
2023-12-08T00:10:56.461Z,18.93
2023-12-08T00:13:26.680Z,18.40
2023-12-08T00:15:56.542Z,18.20
2023-12-08T00:18:26.588Z,17.37
2023-12-08T00:20:56.462Z,17.55
2023-12-08T00:23:26.587Z,18.87
2023-12-08T00:25:56.471Z,17.70
2023-12-08T00:28:26.353Z,16.73
2023-12-08T00:30:56.297Z,17.23
2023-12-08T00:33:26.360Z,18.07
2023-12-08T00:35:56.299Z,16.70
2023-12-08T00:38:25.934Z,17.03
2023-12-08T00:40:57.632Z,18.77
2023-12-08T00:43:27.744Z,17.85
2023-12-08T00:45:57.375Z,17.90
2023-12-08T00:48:27.381Z,16.50
2023-12-08T00:50:57.471Z,17.30
2023-12-08T00:53:27.763Z,17.30
2023-12-08T00:55:57.819Z,17.03
2023-12-08T00:58:27.762Z,17.67
2023-12-08T01:00:57.687Z,17.00
2023-12-08T01:03:27.824Z,16.97
2023-12-08T01:05:58.941Z,16.75
2023-12-08T01:08:28.808Z,16.02
2023-12-08T01:10:58.720Z,16.60
2023-12-08T01:13:28.593Z,16.03
2023-12-08T01:15:58.502Z,15.70
2023-12-08T01:18:28.371Z,15.72
2023-12-08T01:20:58.348Z,16.07
2023-12-08T01:23:28.259Z,15.83
2023-12-08T01:25:58.475Z,15.68
2023-12-08T01:28:28.451Z,15.67
2023-12-08T01:30:58.605Z,14.78
2023-12-08T01:33:32.053Z,15.03
2023-12-08T01:36:38.157Z,15.70
2023-12-08T01:38:33.948Z,14.97
2023-12-08T01:41:03.942Z,14.40
2023-12-08T01:43:33.795Z,14.67
2023-12-08T01:46:06.234Z,14.83
2023-12-08T01:48:36.589Z,14.47
2023-12-08T01:51:07.689Z,14.90
2023-12-08T01:53:37.959Z,15.87
2023-12-08T01:56:10.771Z,15.28
2023-12-08T01:58:42.433Z,14.83
2023-12-08T02:01:12.866Z,15.37
2023-12-08T02:03:43.982Z,14.10
2023-12-08T02:06:14.086Z,14.80
2023-12-08T02:08:44.040Z,14.90
2023-12-08T02:11:15.221Z,14.20
2023-12-08T02:13:46.587Z,15.67
2023-12-08T02:16:27.709Z,13.63
2023-12-08T02:18:59.018Z,13.80
2023-12-08T02:21:31.396Z,15.27
2023-12-08T02:24:01.801Z,14.87
2023-12-08T02:26:31.800Z,15.50
2023-12-08T02:29:01.998Z,14.87
2023-12-08T02:31:34.902Z,15.50
2023-12-08T02:34:08.572Z,16.33
2023-12-08T02:36:39.484Z,15.88
2023-12-08T02:39:12.320Z,14.90
2023-12-08T02:41:44.638Z,14.93
2023-12-08T02:44:14.571Z,14.00
2023-12-08T02:46:44.977Z,16.32
2023-12-08T02:49:15.008Z,15.93
2023-12-08T02:51:44.837Z,15.90
2023-12-08T02:54:14.944Z,15.20
2023-12-08T02:56:44.925Z,15.80
2023-12-08T02:59:14.787Z,16.27
2023-12-08T03:01:44.679Z,14.83
2023-12-08T03:04:14.554Z,15.60
2023-12-08T03:06:44.396Z,16.47
2023-12-08T03:09:15.272Z,15.30
2023-12-08T03:11:46.758Z,15.47
2023-12-08T03:14:16.311Z,14.47
2023-12-08T03:16:48.153Z,16.45
2023-12-08T03:19:18.338Z,16.80
2023-12-08T03:21:49.090Z,16.70
2023-12-08T03:24:19.092Z,16.70
2023-12-08T03:26:49.087Z,16.83
2023-12-08T03:29:19.000Z,16.57
2023-12-08T03:31:48.833Z,17.33
2023-12-08T03:34:18.450Z,17.60
2023-12-08T03:36:48.369Z,18.03
2023-12-08T03:39:18.313Z,18.07
2023-12-08T03:41:48.161Z,18.00
2023-12-08T03:44:18.222Z,18.20
2023-12-08T03:46:48.128Z,17.03
2023-12-08T03:49:18.778Z,19.13
2023-12-08T03:51:48.758Z,18.87
2023-12-08T03:54:18.720Z,19.05
2023-12-08T03:56:48.631Z,18.70
2023-12-08T03:59:18.534Z,18.63
2023-12-08T04:01:50.184Z,18.85
2023-12-08T04:04:25.883Z,18.98
2023-12-08T04:06:51.376Z,18.70
2023-12-08T04:09:21.301Z,18.73
2023-12-08T04:11:51.240Z,19.67
2023-12-08T04:14:21.048Z,20.07
2023-12-08T04:16:53.147Z,19.37
2023-12-08T04:19:23.327Z,19.57
2023-12-08T04:21:54.043Z,19.13
2023-12-08T04:24:24.277Z,18.98
2023-12-08T04:26:54.273Z,21.17
2023-12-08T04:29:24.276Z,19.67
2023-12-08T04:31:54.608Z,20.83
2023-12-08T04:34:24.318Z,20.30
2023-12-08T04:36:54.190Z,19.87
2023-12-08T04:39:24.048Z,20.57
2023-12-08T04:41:53.977Z,20.20
2023-12-08T04:44:23.580Z,19.85
2023-12-08T04:46:53.917Z,20.70
2023-12-08T04:49:24.472Z,20.87
2023-12-08T04:51:54.504Z,21.53
2023-12-08T04:54:24.128Z,23.20
2023-12-08T04:56:54.024Z,22.80
2023-12-08T04:59:23.955Z,23.23
2023-12-08T05:01:54.665Z,22.03
2023-12-08T05:04:24.561Z,22.98
2023-12-08T05:06:54.550Z,23.30
2023-12-08T05:09:25.989Z,22.40
2023-12-08T05:11:56.523Z,22.83
2023-12-08T05:14:26.757Z,22.52
2023-12-08T05:16:56.899Z,23.35
2023-12-08T05:19:27.303Z,23.40
2023-12-08T05:21:57.895Z,23.23
2023-12-08T05:24:27.856Z,23.35
2023-12-08T05:26:57.602Z,23.35
2023-12-08T05:29:27.707Z,22.87
2023-12-08T05:31:57.601Z,23.50
2023-12-08T05:34:27.548Z,22.90
2023-12-08T05:36:57.763Z,22.90
2023-12-08T05:39:27.667Z,24.43
2023-12-08T05:41:57.580Z,24.33
2023-12-08T05:44:27.150Z,23.53
2023-12-08T05:46:58.532Z,22.80
2023-12-08T05:49:28.685Z,23.43
2023-12-08T05:51:58.927Z,23.52
2023-12-08T05:54:28.861Z,23.93
2023-12-08T05:56:59.772Z,23.95
2023-12-08T05:59:29.718Z,24.37
2023-12-08T06:01:59.675Z,24.87
2023-12-08T06:04:29.512Z,23.27
2023-12-08T06:06:59.813Z,23.42
2023-12-08T06:09:30.031Z,23.90
2023-12-08T06:12:00.703Z,23.90
2023-12-08T06:14:30.555Z,24.03
2023-12-08T06:17:00.157Z,23.90
2023-12-08T06:19:30.866Z,23.60
2023-12-08T06:22:00.772Z,24.30
2023-12-08T06:24:30.727Z,23.57
2023-12-08T06:27:00.608Z,24.00
2023-12-08T06:29:31.998Z,23.03
2023-12-08T06:32:01.980Z,23.87
2023-12-08T06:34:32.370Z,24.73
2023-12-08T06:37:02.600Z,23.65
2023-12-08T06:39:32.633Z,24.90
2023-12-08T06:42:02.569Z,23.30
2023-12-08T06:44:32.394Z,23.87
2023-12-08T06:47:02.260Z,23.67
2023-12-08T06:49:32.328Z,23.23
2023-12-08T06:52:02.294Z,24.43
2023-12-08T06:54:33.370Z,23.53
2023-12-08T06:57:03.458Z,22.60
2023-12-08T06:59:33.352Z,23.07
2023-12-08T07:02:03.322Z,23.63
2023-12-08T07:04:33.347Z,22.47
2023-12-08T07:07:03.165Z,22.90
2023-12-08T07:09:33.059Z,23.20
2023-12-08T07:12:02.981Z,22.20
2023-12-08T07:14:33.423Z,22.83
2023-12-08T07:17:03.387Z,21.00
2023-12-08T07:19:33.340Z,21.63
2023-12-08T07:22:03.268Z,20.50
2023-12-08T07:24:33.319Z,23.10
2023-12-08T07:27:03.997Z,21.53
2023-12-08T07:29:34.039Z,22.57
2023-12-08T07:32:05.350Z,21.97
2023-12-08T07:34:35.554Z,23.47
2023-12-08T07:37:05.822Z,22.45
2023-12-08T07:39:35.852Z,22.23
2023-12-08T07:42:08.353Z,22.02
2023-12-08T07:44:38.236Z,22.67
2023-12-08T07:47:08.419Z,23.10
2023-12-08T07:49:38.504Z,23.27
2023-12-08T07:52:09.591Z,23.23
2023-12-08T07:54:39.810Z,23.18
2023-12-08T07:57:10.485Z,23.47
2023-12-08T07:59:40.489Z,23.63
2023-12-08T08:02:11.589Z,24.25
2023-12-08T08:04:42.312Z,22.55
2023-12-08T08:07:12.192Z,23.67
2023-12-08T08:09:43.556Z,24.80
2023-12-08T08:12:13.466Z,23.60
2023-12-08T08:14:43.582Z,24.30
2023-12-08T08:17:13.453Z,23.57
2023-12-08T08:19:43.424Z,24.53
2023-12-08T08:22:29.368Z,25.73
2023-12-08T08:24:44.901Z,24.07
2023-12-08T08:27:14.790Z,25.47
2023-12-08T08:29:44.845Z,26.33
2023-12-08T08:32:16.763Z,24.07
2023-12-08T08:34:46.949Z,24.40
2023-12-08T08:37:17.023Z,25.60
2023-12-08T08:39:46.868Z,25.97
2023-12-08T08:42:16.918Z,24.32
2023-12-08T08:44:46.852Z,26.10
2023-12-08T08:47:18.425Z,24.93
2023-12-08T08:49:48.707Z,24.05
2023-12-08T08:52:19.588Z,25.30
2023-12-08T08:54:49.253Z,25.05
2023-12-08T08:57:19.337Z,25.27
2023-12-08T08:59:49.237Z,26.10
2023-12-08T09:02:19.106Z,24.90
2023-12-08T09:04:49.097Z,25.30
2023-12-08T09:07:18.958Z,25.33
2023-12-08T09:09:48.832Z,26.57
2023-12-08T09:12:18.413Z,28.83
2023-12-08T09:14:48.484Z,30.80
2023-12-08T09:17:18.719Z,29.67
2023-12-08T09:19:48.616Z,31.33
2023-12-08T09:22:18.549Z,30.92
2023-12-08T09:24:48.763Z,34.00
2023-12-08T09:27:18.742Z,34.03
2023-12-08T09:29:48.681Z,34.73
2023-12-08T09:32:18.303Z,36.27
2023-12-08T09:34:48.228Z,36.40
2023-12-08T09:37:27.074Z,39.13
2023-12-08T09:39:49.749Z,37.33
2023-12-08T09:42:25.473Z,37.53
2023-12-08T09:47:29.113Z,38.80
2023-12-08T09:50:03.017Z,37.23
2023-12-08T09:52:35.244Z,41.50
2023-12-08T09:55:06.950Z,41.80
2023-12-08T09:57:38.038Z,41.30
2023-12-08T10:00:14.420Z,40.77
2023-12-08T10:02:44.834Z,41.98
2023-12-08T10:05:14.853Z,40.43
2023-12-08T10:07:47.862Z,43.60
2023-12-08T10:10:17.821Z,40.93
2023-12-08T10:12:48.781Z,41.63
2023-12-08T10:15:19.757Z,42.38
2023-12-08T10:17:54.220Z,42.33
2023-12-08T10:20:25.207Z,44.27
2023-12-08T10:22:57.210Z,43.00
2023-12-08T10:25:28.634Z,43.97
2023-12-08T10:27:59.088Z,44.13
2023-12-08T10:30:29.741Z,44.07
2023-12-08T10:33:00.445Z,41.60
2023-12-08T10:35:30.711Z,43.10
2023-12-08T10:38:03.815Z,45.70
2023-12-08T10:40:33.966Z,47.17
2023-12-08T10:43:05.529Z,42.73
2023-12-08T10:45:36.718Z,44.30
2023-12-08T10:48:08.441Z,44.75
2023-12-08T10:50:40.323Z,44.93
2023-12-08T10:53:11.442Z,45.33
2023-12-08T10:55:41.369Z,46.03
2023-12-08T10:58:16.102Z,45.37
2023-12-08T11:03:19.968Z,46.37
2023-12-08T11:05:52.948Z,44.00
2023-12-08T11:08:22.914Z,44.77
2023-12-08T11:10:56.609Z,45.77
2023-12-08T11:13:29.130Z,45.70
2023-12-08T11:16:36.632Z,45.67
2023-12-08T11:19:10.088Z,46.35
2023-12-08T11:21:39.714Z,54.48
2023-12-08T11:24:12.044Z,49.30
2023-12-08T11:27:09.410Z,43.37
2023-12-08T11:32:31.320Z,39.92
2023-12-08T11:35:08.829Z,41.60
2023-12-08T11:37:39.710Z,39.57
2023-12-08T11:40:14.204Z,40.23
2023-12-08T11:42:49.246Z,38.80
2023-12-08T11:45:20.419Z,35.20
2023-12-08T11:47:50.496Z,34.33
2023-12-08T11:50:20.364Z,32.30
2023-12-08T11:52:52.480Z,30.10
2023-12-08T11:55:30.705Z,28.97
2023-12-08T11:58:05.257Z,28.02
2023-12-08T12:00:40.519Z,27.57
2023-12-08T12:03:12.670Z,27.07
2023-12-08T12:05:44.570Z,27.93
2023-12-08T12:08:15.285Z,26.30
2023-12-08T12:10:47.368Z,25.80
2023-12-08T12:13:20.362Z,26.07
2023-12-08T12:15:50.523Z,26.57
2023-12-08T12:18:20.199Z,24.93
2023-12-08T12:20:51.132Z,27.67
2023-12-08T12:23:20.962Z,27.83
2023-12-08T12:25:51.475Z,27.60
2023-12-08T12:28:21.293Z,28.30
2023-12-08T12:30:51.431Z,27.90
2023-12-08T12:33:21.515Z,29.40
2023-12-08T12:35:56.570Z,26.57
2023-12-08T12:38:23.076Z,28.93
2023-12-08T12:40:56.721Z,28.23
2023-12-08T12:43:26.785Z,29.53
2023-12-08T12:45:57.169Z,29.50
2023-12-08T12:48:27.343Z,28.47
2023-12-08T12:50:57.323Z,30.23
2023-12-08T12:53:27.154Z,31.40
2023-12-08T12:56:08.269Z,27.50
2023-12-08T12:58:38.253Z,27.97
2023-12-08T13:01:15.152Z,29.17
2023-12-08T13:03:49.184Z,29.47
2023-12-08T13:06:29.282Z,29.20
2023-12-08T13:09:04.327Z,28.87
2023-12-08T13:11:34.257Z,29.30
2023-12-08T13:14:06.786Z,28.22
2023-12-08T13:16:36.773Z,28.67
2023-12-08T13:19:06.686Z,28.03
2023-12-08T13:21:38.042Z,30.40
2023-12-08T13:24:09.977Z,28.80
2023-12-08T13:26:39.847Z,27.53
2023-12-08T13:29:09.483Z,28.45
2023-12-08T13:31:39.351Z,31.00
2023-12-08T13:34:11.626Z,30.15
2023-12-08T13:36:41.903Z,27.98
2023-12-08T13:39:11.807Z,28.27
2023-12-08T13:41:42.027Z,28.02
2023-12-08T13:44:11.708Z,30.47
2023-12-08T13:46:41.763Z,30.60
2023-12-08T13:49:11.527Z,29.10
2023-12-08T13:51:42.222Z,30.20
2023-12-08T13:54:13.018Z,29.30
2023-12-08T13:56:43.138Z,31.07
2023-12-08T13:59:13.012Z,31.20
2023-12-08T14:01:43.144Z,31.37
2023-12-08T14:04:13.172Z,32.25
2023-12-08T14:06:43.175Z,31.33
2023-12-08T14:09:13.032Z,30.17
2023-12-08T14:11:43.745Z,33.45
2023-12-08T14:14:14.016Z,30.37
2023-12-08T14:16:43.861Z,30.27
2023-12-08T14:19:14.415Z,31.10
2023-12-08T14:21:44.451Z,28.53
2023-12-08T14:24:14.305Z,29.98
2023-12-08T14:26:45.756Z,30.60
2023-12-08T14:29:16.112Z,29.60
2023-12-08T14:31:46.244Z,30.32
2023-12-08T14:34:16.289Z,29.45
2023-12-08T14:36:47.450Z,29.87
2023-12-08T14:39:18.859Z,30.03
2023-12-08T14:41:49.047Z,30.17
2023-12-08T14:44:18.928Z,29.85
2023-12-08T14:46:50.307Z,29.00
2023-12-08T14:49:20.717Z,30.27
2023-12-08T14:51:50.687Z,30.57
2023-12-08T14:54:26.135Z,28.53
2023-12-08T14:56:51.745Z,29.93
2023-12-08T14:59:21.672Z,28.53
2023-12-08T15:01:54.935Z,25.83
2023-12-08T15:04:25.539Z,28.05
2023-12-08T15:06:55.188Z,25.90
2023-12-08T15:09:25.205Z,26.70
2023-12-08T15:11:55.356Z,25.40
2023-12-08T15:14:25.006Z,26.77
2023-12-08T15:16:54.886Z,23.93
2023-12-08T15:19:24.775Z,25.23
2023-12-08T15:21:56.650Z,23.47
2023-12-08T15:24:26.222Z,25.00
2023-12-08T15:26:56.124Z,25.00
2023-12-08T15:29:25.681Z,23.00
2023-12-08T15:31:55.819Z,25.43
2023-12-08T15:34:25.799Z,23.27
2023-12-08T15:36:56.116Z,23.55
2023-12-08T15:39:25.983Z,23.43
2023-12-08T15:41:55.915Z,22.93
2023-12-08T15:44:26.535Z,24.57
2023-12-08T15:46:56.922Z,23.47
2023-12-08T15:49:26.867Z,22.10
2023-12-08T15:51:56.849Z,22.83
2023-12-08T15:54:26.523Z,24.77
2023-12-08T15:56:56.546Z,24.97
2023-12-08T15:59:26.519Z,24.07
2023-12-08T16:01:58.452Z,23.43
2023-12-08T16:04:31.142Z,23.85
2023-12-08T16:07:01.601Z,22.77
2023-12-08T16:09:31.732Z,23.92
2023-12-08T16:12:01.672Z,23.37
2023-12-08T16:14:31.583Z,23.23
2023-12-08T16:17:02.702Z,23.70
2023-12-08T16:19:32.970Z,23.17
2023-12-08T16:22:03.190Z,23.77
2023-12-08T16:24:33.171Z,24.20
2023-12-08T16:27:03.841Z,23.70
2023-12-08T16:29:34.072Z,25.57
2023-12-08T16:32:06.867Z,26.53
2023-12-08T16:34:36.751Z,25.53
2023-12-08T16:37:06.715Z,25.80
2023-12-08T16:39:36.560Z,25.53
2023-12-08T16:42:08.218Z,26.10
2023-12-08T16:44:38.278Z,24.17
2023-12-08T16:47:08.238Z,27.27
2023-12-08T16:49:38.190Z,28.03
2023-12-08T16:52:09.551Z,27.33
2023-12-08T16:54:39.246Z,28.80
2023-12-08T16:57:09.152Z,26.97
2023-12-08T16:59:39.153Z,30.77
2023-12-08T17:02:11.213Z,31.50
2023-12-08T17:04:41.086Z,28.10
2023-12-08T17:07:10.938Z,29.10
2023-12-08T17:09:40.750Z,27.67
2023-12-08T17:12:11.857Z,28.05
2023-12-08T17:14:41.705Z,27.60
2023-12-08T17:17:11.450Z,26.05
2023-12-08T17:19:41.796Z,27.40
2023-12-08T17:22:11.749Z,25.72
2023-12-08T17:24:41.721Z,26.37
2023-12-08T17:27:11.421Z,27.05
2023-12-08T17:29:41.317Z,26.37
2023-12-08T17:32:13.219Z,26.46
2023-12-08T17:34:45.250Z,25.17
2023-12-08T17:37:15.149Z,24.83
2023-12-08T17:39:45.051Z,26.27
2023-12-08T17:42:14.981Z,31.53
2023-12-08T17:44:44.945Z,24.87
2023-12-08T17:47:14.906Z,28.63
2023-12-08T17:49:44.975Z,26.33
2023-12-08T17:52:16.189Z,26.05
2023-12-08T17:54:46.047Z,25.33
2023-12-08T17:57:16.016Z,26.10
2023-12-08T17:59:46.153Z,24.10
2023-12-08T18:02:16.045Z,25.23
2023-12-08T18:04:46.274Z,25.08
2023-12-08T18:07:16.265Z,23.57
2023-12-08T18:09:46.105Z,25.97
2023-12-08T18:12:17.345Z,23.73
2023-12-08T18:14:47.262Z,23.80
2023-12-08T18:17:18.985Z,22.13
2023-12-08T18:19:49.120Z,23.57
2023-12-08T18:22:19.250Z,25.62
2023-12-08T18:24:49.195Z,24.73
2023-12-08T18:27:23.950Z,23.57
2023-12-08T18:29:50.618Z,23.87
2023-12-08T18:32:20.371Z,25.30
2023-12-08T18:34:50.804Z,24.80
2023-12-08T18:37:20.714Z,27.63
2023-12-08T18:39:50.602Z,28.40
2023-12-08T18:42:20.209Z,29.00
2023-12-08T18:44:50.095Z,25.93
2023-12-08T18:47:20.992Z,24.77
2023-12-08T18:49:50.888Z,31.80
2023-12-08T18:52:20.629Z,26.87
2023-12-08T18:54:50.778Z,28.50
2023-12-08T18:57:20.396Z,28.55
2023-12-08T18:59:50.302Z,33.30
2023-12-08T19:02:20.218Z,24.40
2023-12-08T19:04:50.484Z,24.52
2023-12-08T19:07:20.660Z,26.40
2023-12-08T19:09:50.529Z,25.33
2023-12-08T19:12:21.704Z,24.90
2023-12-08T19:14:51.331Z,23.57
2023-12-08T19:17:21.238Z,25.07
2023-12-08T19:19:51.164Z,22.50
2023-12-08T19:22:20.989Z,24.63
2023-12-08T19:24:51.156Z,22.82
2023-12-08T19:27:21.098Z,23.73
2023-12-08T19:29:50.999Z,22.80
2023-12-08T19:32:21.660Z,24.65
2023-12-08T19:34:51.580Z,22.10
2023-12-08T19:37:21.728Z,23.07
2023-12-08T19:39:51.591Z,26.57
2023-12-08T19:42:21.190Z,25.40
2023-12-08T19:44:54.631Z,22.83
2023-12-08T19:47:24.747Z,23.07
2023-12-08T19:49:54.851Z,23.63
2023-12-08T19:52:26.203Z,22.77
2023-12-08T19:54:56.227Z,24.60
2023-12-08T19:57:26.487Z,24.83
2023-12-08T19:59:57.597Z,23.35
2023-12-08T20:02:27.208Z,22.55
2023-12-08T20:04:57.119Z,21.53
2023-12-08T20:07:27.176Z,24.00
2023-12-08T20:09:57.109Z,23.20
2023-12-08T20:12:28.020Z,23.05
2023-12-08T20:14:58.517Z,22.60
2023-12-08T20:17:29.069Z,25.35
2023-12-08T20:19:59.196Z,21.37
2023-12-08T20:22:28.882Z,21.83
2023-12-08T20:24:59.037Z,21.87
2023-12-08T20:27:29.216Z,22.17
2023-12-08T20:29:59.528Z,22.20
2023-12-08T20:32:29.235Z,22.17
2023-12-08T20:34:59.173Z,20.77
2023-12-08T20:37:29.243Z,21.13
2023-12-08T20:39:59.230Z,22.80
2023-12-08T20:42:30.887Z,21.47
2023-12-08T20:45:00.784Z,20.97
2023-12-08T20:47:31.537Z,20.27
2023-12-08T20:50:01.767Z,19.87
2023-12-08T20:52:31.635Z,20.03
2023-12-08T20:55:02.736Z,18.95
2023-12-08T20:57:32.976Z,18.40
2023-12-08T21:00:03.333Z,19.17
2023-12-08T21:02:33.501Z,19.75
2023-12-08T21:05:03.341Z,19.17
2023-12-08T21:07:34.004Z,19.43
2023-12-08T21:10:05.518Z,19.62
2023-12-08T21:12:35.517Z,18.90
2023-12-08T21:15:07.579Z,19.23
2023-12-08T21:17:41.332Z,20.62
2023-12-08T21:20:13.566Z,17.56
2023-12-08T21:22:43.403Z,19.30
2023-12-08T21:25:13.946Z,20.13
2023-12-08T21:27:44.907Z,18.07
2023-12-08T21:30:16.101Z,19.35
2023-12-08T21:32:47.182Z,17.80
2023-12-08T21:35:17.251Z,17.82
2023-12-08T21:37:46.895Z,18.65
2023-12-08T21:40:18.425Z,17.63
2023-12-08T21:42:50.799Z,16.20
2023-12-08T21:45:22.598Z,16.67
2023-12-08T21:47:52.277Z,16.77
2023-12-08T21:50:23.021Z,16.27
2023-12-08T21:52:54.084Z,16.07
2023-12-08T21:55:24.130Z,15.80
2023-12-08T21:57:54.343Z,16.57
2023-12-08T22:00:24.170Z,16.07
2023-12-08T22:02:54.196Z,16.53
2023-12-08T22:05:24.044Z,15.90
2023-12-08T22:07:53.988Z,15.43
2023-12-08T22:10:23.741Z,15.35
2023-12-08T22:12:53.601Z,14.57
2023-12-08T22:15:23.462Z,14.50
2023-12-08T22:17:53.477Z,16.37
2023-12-08T22:20:23.449Z,14.27
2023-12-08T22:22:53.301Z,14.30
2023-12-08T22:25:23.393Z,13.75
2023-12-08T22:27:53.245Z,13.53
2023-12-08T22:30:23.119Z,14.45
2023-12-08T22:32:53.041Z,13.63
2023-12-08T22:35:22.981Z,14.30
2023-12-08T22:37:52.949Z,13.40
2023-12-08T22:40:22.889Z,13.28
2023-12-08T22:42:55.362Z,13.50
2023-12-08T22:45:25.323Z,13.15
2023-12-08T22:47:55.290Z,12.83
2023-12-08T22:50:27.475Z,14.17
2023-12-08T22:52:56.529Z,15.63
2023-12-08T22:55:26.655Z,14.30
2023-12-08T22:57:57.007Z,14.83
2023-12-08T23:00:27.338Z,16.73
2023-12-08T23:02:57.741Z,16.93
2023-12-08T23:05:27.641Z,15.60
2023-12-08T23:07:57.521Z,13.53
2023-12-08T23:10:27.763Z,13.95
2023-12-08T23:12:57.553Z,14.50
2023-12-08T23:15:27.594Z,14.70
2023-12-08T23:17:57.745Z,15.63
2023-12-08T23:20:27.763Z,14.35
2023-12-08T23:22:58.273Z,13.10
2023-12-08T23:25:28.154Z,12.93
2023-12-08T23:27:58.050Z,13.77
2023-12-08T23:30:27.842Z,17.20
2023-12-08T23:32:57.798Z,14.00
2023-12-08T23:35:29.415Z,13.45
2023-12-08T23:37:59.123Z,13.00
2023-12-08T23:40:28.664Z,13.50
2023-12-08T23:42:58.515Z,13.77
2023-12-08T23:45:29.645Z,14.33
2023-12-08T23:48:01.450Z,13.23
2023-12-08T23:50:31.446Z,12.93
2023-12-08T23:53:01.357Z,15.13
2023-12-08T23:55:31.231Z,14.37
2023-12-08T23:58:01.187Z,13.67
